sensor_id;sensor_type;location;lat;lon;timestamp;pressure;altitude;pressure_sealevel;temperature;humidity
41062;BME280;26812;42.662;23.352;2023-01-15T00:01:03;95325.94;;;6.61;61.66
41062;BME280;26812;42.662;23.352;2023-01-15T00:03:29;95340.94;;;6.62;61.37
41062;BME280;26812;42.662;23.352;2023-01-15T00:05:54;95308.91;;;6.51;61.13
41062;BME280;26812;42.662;23.352;2023-01-15T00:08:20;95315.75;;;6.63;61.32
41062;BME280;26812;42.662;23.352;2023-01-15T00:10:45;95332.22;;;6.80;61.28
41062;BME280;26812;42.662;23.352;2023-01-15T00:13:11;95328.00;;;6.69;60.81
41062;BME280;26812;42.662;23.352;2023-01-15T00:15:36;95330.69;;;6.69;61.29
41062;BME280;26812;42.662;23.352;2023-01-15T00:18:02;95314.44;;;6.60;60.88
41062;BME280;26812;42.662;23.352;2023-01-15T00:20:28;95321.56;;;6.70;60.95
41062;BME280;26812;42.662;23.352;2023-01-15T00:22:53;95308.34;;;6.54;61.20
41062;BME280;26812;42.662;23.352;2023-01-15T00:25:19;95317.06;;;6.65;60.81
41062;BME280;26812;42.662;23.352;2023-01-15T00:28:12;95330.88;;;6.77;60.98
41062;BME280;26812;42.662;23.352;2023-01-15T00:30:41;95336.19;;;6.82;60.11
41062;BME280;26812;42.662;23.352;2023-01-15T00:33:08;95339.09;;;6.86;60.13
41062;BME280;26812;42.662;23.352;2023-01-15T00:35:33;95344.47;;;6.86;60.17
41062;BME280;26812;42.662;23.352;2023-01-15T00:37:59;95330.50;;;6.89;59.97
41062;BME280;26812;42.662;23.352;2023-01-15T00:40:24;95327.81;;;6.89;60.53
41062;BME280;26812;42.662;23.352;2023-01-15T00:42:49;95320.53;;;6.95;60.11
41062;BME280;26812;42.662;23.352;2023-01-15T00:45:15;95316.66;;;6.82;59.80
41062;BME280;26812;42.662;23.352;2023-01-15T00:47:42;95308.66;;;6.77;59.29
41062;BME280;26812;42.662;23.352;2023-01-15T00:50:10;95299.56;;;6.73;59.40
41062;BME280;26812;42.662;23.352;2023-01-15T00:52:36;95313.75;;;6.78;59.40
41062;BME280;26812;42.662;23.352;2023-01-15T00:55:02;95303.31;;;6.77;59.77
41062;BME280;26812;42.662;23.352;2023-01-15T00:57:28;95318.75;;;6.85;59.32
41062;BME280;26812;42.662;23.352;2023-01-15T00:59:53;95307.75;;;6.87;59.64
41062;BME280;26812;42.662;23.352;2023-01-15T01:02:19;95321.44;;;6.85;59.46
41062;BME280;26812;42.662;23.352;2023-01-15T01:04:45;95322.34;;;6.75;59.75
41062;BME280;26812;42.662;23.352;2023-01-15T01:07:10;95319.13;;;6.73;59.85
41062;BME280;26812;42.662;23.352;2023-01-15T01:09:36;95300.38;;;6.73;59.46
41062;BME280;26812;42.662;23.352;2023-01-15T01:12:01;95324.16;;;6.80;59.53
41062;BME280;26812;42.662;23.352;2023-01-15T01:14:27;95314.03;;;6.77;59.74
41062;BME280;26812;42.662;23.352;2023-01-15T01:16:52;95301.56;;;6.62;59.53
41062;BME280;26812;42.662;23.352;2023-01-15T01:19:20;95319.59;;;6.80;59.27
41062;BME280;26812;42.662;23.352;2023-01-15T01:21:46;95310.03;;;6.74;59.28
41062;BME280;26812;42.662;23.352;2023-01-15T01:24:14;95314.03;;;6.72;59.29
41062;BME280;26812;42.662;23.352;2023-01-15T01:26:41;95303.66;;;6.65;59.00
41062;BME280;26812;42.662;23.352;2023-01-15T01:29:11;95314.81;;;6.77;59.07
41062;BME280;26812;42.662;23.352;2023-01-15T01:31:36;95304.84;;;6.83;59.01
41062;BME280;26812;42.662;23.352;2023-01-15T01:34:02;95303.19;;;6.87;59.40
41062;BME280;26812;42.662;23.352;2023-01-15T01:36:35;95295.44;;;6.85;59.37
41062;BME280;26812;42.662;23.352;2023-01-15T01:39:06;95276.75;;;6.80;59.07
41062;BME280;26812;42.662;23.352;2023-01-15T01:41:32;95307.06;;;7.00;59.03
41062;BME280;26812;42.662;23.352;2023-01-15T01:46:27;95315.88;;;7.05;58.83
41062;BME280;26812;42.662;23.352;2023-01-15T01:48:57;95315.88;;;7.05;59.31
41062;BME280;26812;42.662;23.352;2023-01-15T01:51:28;95306.25;;;7.04;59.22
41062;BME280;26812;42.662;23.352;2023-01-15T01:53:57;95307.84;;;7.05;58.85
41062;BME280;26812;42.662;23.352;2023-01-15T01:56:22;95291.28;;;6.98;58.97
41062;BME280;26812;42.662;23.352;2023-01-15T01:58:55;95295.91;;;6.93;58.75
41062;BME280;26812;42.662;23.352;2023-01-15T02:01:23;95291.91;;;6.90;59.00
41062;BME280;26812;42.662;23.352;2023-01-15T02:03:48;95260.56;;;6.67;59.56
41062;BME280;26812;42.662;23.352;2023-01-15T02:06:14;95308.00;;;6.90;59.56
41062;BME280;26812;42.662;23.352;2023-01-15T02:08:41;95307.69;;;6.92;59.35
41062;BME280;26812;42.662;23.352;2023-01-15T02:11:09;95288.84;;;6.78;59.01
41062;BME280;26812;42.662;23.352;2023-01-15T02:13:39;95285.66;;;6.76;59.55
41062;BME280;26812;42.662;23.352;2023-01-15T02:16:13;95302.13;;;6.88;59.19
41062;BME280;26812;42.662;23.352;2023-01-15T02:21:35;95298.03;;;6.67;60.71
41062;BME280;26812;42.662;23.352;2023-01-15T02:32:06;95298.69;;;6.82;59.90
41062;BME280;26812;42.662;23.352;2023-01-15T02:34:35;95301.25;;;6.93;60.21
41062;BME280;26812;42.662;23.352;2023-01-15T02:37:12;95295.63;;;6.94;60.08
41062;BME280;26812;42.662;23.352;2023-01-15T02:39:41;95266.53;;;6.59;60.28
41062;BME280;26812;42.662;23.352;2023-01-15T02:42:10;95268.59;;;6.67;60.03
41062;BME280;26812;42.662;23.352;2023-01-15T02:44:40;95288.66;;;6.93;60.47
41062;BME280;26812;42.662;23.352;2023-01-15T02:47:09;95284.78;;;6.80;60.29
41062;BME280;26812;42.662;23.352;2023-01-15T02:49:36;95285.81;;;6.84;60.53
41062;BME280;26812;42.662;23.352;2023-01-15T02:52:09;95274.75;;;6.91;60.33
41062;BME280;26812;42.662;23.352;2023-01-15T02:54:52;95288.00;;;7.06;59.85
41062;BME280;26812;42.662;23.352;2023-01-15T02:57:22;95278.91;;;7.02;59.93
41062;BME280;26812;42.662;23.352;2023-01-15T02:59:50;95289.03;;;7.10;59.56
41062;BME280;26812;42.662;23.352;2023-01-15T03:02:21;95284.97;;;7.13;59.63
41062;BME280;26812;42.662;23.352;2023-01-15T03:05:02;95290.50;;;7.22;59.53
41062;BME280;26812;42.662;23.352;2023-01-15T03:07:50;95293.41;;;7.25;59.15
41062;BME280;26812;42.662;23.352;2023-01-15T03:10:17;95293.69;;;7.24;58.36
41062;BME280;26812;42.662;23.352;2023-01-15T03:18:14;95268.16;;;7.07;58.73
41062;BME280;26812;42.662;23.352;2023-01-15T03:20:46;95298.41;;;7.32;58.74
41062;BME280;26812;42.662;23.352;2023-01-15T03:23:16;95286.22;;;7.21;59.01
41062;BME280;26812;42.662;23.352;2023-01-15T03:25:46;95286.72;;;7.23;58.65
41062;BME280;26812;42.662;23.352;2023-01-15T03:28:14;95295.72;;;7.32;58.91
41062;BME280;26812;42.662;23.352;2023-01-15T03:30:41;95271.22;;;7.20;58.58
41062;BME280;26812;42.662;23.352;2023-01-15T03:33:08;95288.03;;;7.25;58.73
41062;BME280;26812;42.662;23.352;2023-01-15T03:38:11;95280.88;;;7.21;58.75
41062;BME280;26812;42.662;23.352;2023-01-15T03:43:14;95287.03;;;7.21;58.63
41062;BME280;26812;42.662;23.352;2023-01-15T03:46:02;95290.50;;;7.22;58.30
41062;BME280;26812;42.662;23.352;2023-01-15T03:48:35;95285.72;;;7.19;57.80
41062;BME280;26812;42.662;23.352;2023-01-15T03:53:50;95305.91;;;7.35;57.32
41062;BME280;26812;42.662;23.352;2023-01-15T03:56:26;95302.94;;;7.36;57.01
41062;BME280;26812;42.662;23.352;2023-01-15T03:59:02;95294.59;;;7.38;57.46
41062;BME280;26812;42.662;23.352;2023-01-15T04:01:32;95293.75;;;7.42;56.49
41062;BME280;26812;42.662;23.352;2023-01-15T04:04:00;95292.88;;;7.47;57.00
41062;BME280;26812;42.662;23.352;2023-01-15T04:06:28;95300.41;;;7.45;56.66
41062;BME280;26812;42.662;23.352;2023-01-15T04:08:55;95288.78;;;7.31;56.93
41062;BME280;26812;42.662;23.352;2023-01-15T04:11:23;95297.28;;;7.38;57.11
41062;BME280;26812;42.662;23.352;2023-01-15T04:13:50;95296.19;;;7.39;56.63
41062;BME280;26812;42.662;23.352;2023-01-15T04:16:24;95279.81;;;7.40;56.53
41062;BME280;26812;42.662;23.352;2023-01-15T04:18:50;95273.63;;;7.21;56.17
41062;BME280;26812;42.662;23.352;2023-01-15T04:21:15;95274.94;;;7.24;56.79
41062;BME280;26812;42.662;23.352;2023-01-15T04:23:41;95235.25;;;7.02;56.69
41062;BME280;26812;42.662;23.352;2023-01-15T04:26:06;95282.09;;;7.28;57.38
41062;BME280;26812;42.662;23.352;2023-01-15T04:28:32;95280.88;;;7.21;57.11
41062;BME280;26812;42.662;23.352;2023-01-15T04:30:58;95298.03;;;7.43;56.31
41062;BME280;26812;42.662;23.352;2023-01-15T04:33:24;95300.19;;;7.41;56.35
41062;BME280;26812;42.662;23.352;2023-01-15T04:35:50;95298.09;;;7.38;56.38
41062;BME280;26812;42.662;23.352;2023-01-15T04:38:15;95293.63;;;7.29;56.69
41062;BME280;26812;42.662;23.352;2023-01-15T04:40:42;95284.13;;;7.18;57.08
41062;BME280;26812;42.662;23.352;2023-01-15T04:43:27;95300.94;;;7.23;57.08
41062;BME280;26812;42.662;23.352;2023-01-15T04:46:10;95305.13;;;7.29;56.57
41062;BME280;26812;42.662;23.352;2023-01-15T04:48:38;95302.75;;;7.28;57.03
41062;BME280;26812;42.662;23.352;2023-01-15T04:51:05;95294.25;;;7.21;56.44
41062;BME280;26812;42.662;23.352;2023-01-15T04:53:30;95305.94;;;7.30;56.09
41062;BME280;26812;42.662;23.352;2023-01-15T04:56:03;95291.94;;;7.14;56.30
41062;BME280;26812;42.662;23.352;2023-01-15T04:58:29;95306.06;;;7.20;56.41
41062;BME280;26812;42.662;23.352;2023-01-15T05:00:55;95302.75;;;7.28;55.83
41062;BME280;26812;42.662;23.352;2023-01-15T05:03:21;95317.97;;;7.32;55.67
41062;BME280;26812;42.662;23.352;2023-01-15T05:05:46;95304.13;;;7.25;55.65
41062;BME280;26812;42.662;23.352;2023-01-15T05:08:12;95267.75;;;6.95;56.14
41062;BME280;26812;42.662;23.352;2023-01-15T05:10:37;95293.38;;;7.06;57.08
41062;BME280;26812;42.662;23.352;2023-01-15T05:13:03;95278.69;;;6.99;57.46
41062;BME280;26812;42.662;23.352;2023-01-15T05:15:28;95310.34;;;7.21;57.14
41062;BME280;26812;42.662;23.352;2023-01-15T05:17:55;95295.97;;;7.11;57.06
41062;BME280;26812;42.662;23.352;2023-01-15T05:20:20;95300.34;;;7.02;56.99
41062;BME280;26812;42.662;23.352;2023-01-15T05:22:46;95305.19;;;7.00;58.07
41062;BME280;26812;42.662;23.352;2023-01-15T05:25:11;95309.38;;;7.11;57.17
41062;BME280;26812;42.662;23.352;2023-01-15T05:27:37;95300.47;;;7.16;57.27
41062;BME280;26812;42.662;23.352;2023-01-15T05:30:02;95304.75;;;7.17;56.96
41062;BME280;26812;42.662;23.352;2023-01-15T05:32:29;95309.25;;;7.22;57.36
41062;BME280;26812;42.662;23.352;2023-01-15T05:34:54;95315.13;;;7.24;57.70
41062;BME280;26812;42.662;23.352;2023-01-15T05:37:20;95301.28;;;7.16;58.11
41062;BME280;26812;42.662;23.352;2023-01-15T05:39:45;95283.38;;;7.12;57.44
41062;BME280;26812;42.662;23.352;2023-01-15T05:42:11;95304.97;;;7.21;56.76
41062;BME280;26812;42.662;23.352;2023-01-15T05:44:36;95303.75;;;7.13;57.60
41062;BME280;26812;42.662;23.352;2023-01-15T05:47:02;95315.81;;;7.10;58.37
41062;BME280;26812;42.662;23.352;2023-01-15T05:49:30;95305.41;;;7.09;57.47
41062;BME280;26812;42.662;23.352;2023-01-15T05:51:56;95312.34;;;7.10;58.03
41062;BME280;26812;42.662;23.352;2023-01-15T05:54:24;95304.91;;;7.02;57.73
41062;BME280;26812;42.662;23.352;2023-01-15T05:56:50;95303.59;;;6.99;58.05
41062;BME280;26812;42.662;23.352;2023-01-15T05:59:18;95306.78;;;7.01;58.15
41062;BME280;26812;42.662;23.352;2023-01-15T06:01:44;95295.00;;;7.02;57.57
41062;BME280;26812;42.662;23.352;2023-01-15T06:04:10;95323.81;;;7.15;57.85
41062;BME280;26812;42.662;23.352;2023-01-15T06:06:39;95328.31;;;7.20;57.53
41062;BME280;26812;42.662;23.352;2023-01-15T06:09:04;95312.84;;;7.12;57.85
41062;BME280;26812;42.662;23.352;2023-01-15T06:11:30;95322.66;;;7.22;58.64
41062;BME280;26812;42.662;23.352;2023-01-15T06:13:56;95319.88;;;7.08;58.84
41062;BME280;26812;42.662;23.352;2023-01-15T06:16:21;95316.06;;;7.14;58.41
41062;BME280;26812;42.662;23.352;2023-01-15T06:18:47;95311.84;;;7.08;58.11
41062;BME280;26812;42.662;23.352;2023-01-15T06:21:13;95317.59;;;7.20;58.20
41062;BME280;26812;42.662;23.352;2023-01-15T06:23:40;95299.84;;;7.00;58.85
41062;BME280;26812;42.662;23.352;2023-01-15T06:26:16;95292.31;;;7.02;58.46
41062;BME280;26812;42.662;23.352;2023-01-15T06:28:43;95299.25;;;7.08;57.95
41062;BME280;26812;42.662;23.352;2023-01-15T06:31:10;95292.84;;;7.04;57.07
41062;BME280;26812;42.662;23.352;2023-01-15T06:33:36;95306.41;;;7.13;56.73
41062;BME280;26812;42.662;23.352;2023-01-15T06:36:22;95306.69;;;7.11;58.00
41062;BME280;26812;42.662;23.352;2023-01-15T06:38:48;95313.72;;;7.07;57.89
41062;BME280;26812;42.662;23.352;2023-01-15T06:41:16;95291.97;;;6.85;58.21
41062;BME280;26812;42.662;23.352;2023-01-15T06:44:00;95308.88;;;7.09;57.94
41062;BME280;26812;42.662;23.352;2023-01-15T06:46:46;95314.56;;;7.27;57.14
41062;BME280;26812;42.662;23.352;2023-01-15T06:49:30;95320.25;;;7.44;56.33
41062;BME280;26812;42.662;23.352;2023-01-15T06:51:56;95309.59;;;7.39;55.79
41062;BME280;26812;42.662;23.352;2023-01-15T06:54:22;95295.28;;;7.25;56.41
41062;BME280;26812;42.662;23.352;2023-01-15T06:56:47;95307.72;;;7.39;56.26
41062;BME280;26812;42.662;23.352;2023-01-15T06:59:13;95305.06;;;7.34;55.12
41062;BME280;26812;42.662;23.352;2023-01-15T07:01:38;95303.72;;;7.37;55.21
41062;BME280;26812;42.662;23.352;2023-01-15T07:04:04;95302.13;;;7.36;54.61
41062;BME280;26812;42.662;23.352;2023-01-15T07:06:30;95312.16;;;7.49;54.54
41062;BME280;26812;42.662;23.352;2023-01-15T07:08:55;95281.94;;;7.43;54.79
41062;BME280;26812;42.662;23.352;2023-01-15T07:11:21;95281.66;;;7.45;54.61
41062;BME280;26812;42.662;23.352;2023-01-15T07:13:46;95310.81;;;7.70;54.19
41062;BME280;26812;42.662;23.352;2023-01-15T07:16:13;95317.78;;;7.71;53.98
41062;BME280;26812;42.662;23.352;2023-01-15T07:18:54;95308.56;;;7.77;53.85
41062;BME280;26812;42.662;23.352;2023-01-15T07:21:20;95297.63;;;7.74;54.01
41062;BME280;26812;42.662;23.352;2023-01-15T07:23:46;95308.00;;;7.81;54.69
41062;BME280;26812;42.662;23.352;2023-01-15T07:26:11;95300.88;;;7.71;54.71
41062;BME280;26812;42.662;23.352;2023-01-15T07:28:37;95316.69;;;7.72;55.35
41062;BME280;26812;42.662;23.352;2023-01-15T07:31:02;95328.34;;;7.82;55.40
41062;BME280;26812;42.662;23.352;2023-01-15T07:33:28;95301.50;;;7.63;55.79
41062;BME280;26812;42.662;23.352;2023-01-15T07:35:54;95322.91;;;7.87;55.61
41062;BME280;26812;42.662;23.352;2023-01-15T07:38:21;95292.41;;;7.83;54.70
41062;BME280;26812;42.662;23.352;2023-01-15T07:40:46;95321.56;;;8.08;55.37
41062;BME280;26812;42.662;23.352;2023-01-15T07:43:32;95325.63;;;8.05;54.90
41062;BME280;26812;42.662;23.352;2023-01-15T07:46:15;95319.97;;;8.07;54.86
41062;BME280;26812;42.662;23.352;2023-01-15T07:48:59;95324.81;;;8.05;54.65
41062;BME280;26812;42.662;23.352;2023-01-15T07:51:43;95325.63;;;8.05;54.17
41062;BME280;26812;42.662;23.352;2023-01-15T07:54:09;95324.88;;;8.19;54.26
41062;BME280;26812;42.662;23.352;2023-01-15T07:56:36;95314.81;;;8.10;54.08
41062;BME280;26812;42.662;23.352;2023-01-15T07:59:02;95324.91;;;8.37;53.50
41062;BME280;26812;42.662;23.352;2023-01-15T08:01:27;95308.72;;;8.43;53.41
41062;BME280;26812;42.662;23.352;2023-01-15T08:03:53;95303.66;;;8.55;52.34
41062;BME280;26812;42.662;23.352;2023-01-15T08:06:18;95314.47;;;8.68;52.90
41062;BME280;26812;42.662;23.352;2023-01-15T08:08:43;95321.94;;;8.85;52.65
41062;BME280;26812;42.662;23.352;2023-01-15T08:11:09;95319.41;;;9.08;51.56
41062;BME280;26812;42.662;23.352;2023-01-15T08:13:52;95323.31;;;9.29;50.87
41062;BME280;26812;42.662;23.352;2023-01-15T08:16:36;95326.69;;;9.34;50.11
41062;BME280;26812;42.662;23.352;2023-01-15T08:19:02;95330.47;;;9.47;50.36
41062;BME280;26812;42.662;23.352;2023-01-15T08:21:28;95336.28;;;9.54;49.72
41062;BME280;26812;42.662;23.352;2023-01-15T08:23:53;95334.56;;;9.58;48.80
41062;BME280;26812;42.662;23.352;2023-01-15T08:26:19;95327.50;;;9.62;49.80
41062;BME280;26812;42.662;23.352;2023-01-15T08:28:44;95328.81;;;9.51;50.02
41062;BME280;26812;42.662;23.352;2023-01-15T08:31:10;95332.50;;;9.55;50.68
41062;BME280;26812;42.662;23.352;2023-01-15T08:33:35;95341.06;;;9.57;50.63
41062;BME280;26812;42.662;23.352;2023-01-15T08:36:01;95346.84;;;9.51;51.20
41062;BME280;26812;42.662;23.352;2023-01-15T08:38:26;95338.25;;;9.35;51.88
41062;BME280;26812;42.662;23.352;2023-01-15T08:40:53;95322.31;;;9.25;51.75
41062;BME280;26812;42.662;23.352;2023-01-15T08:43:27;95333.88;;;9.39;51.34
41062;BME280;26812;42.662;23.352;2023-01-15T08:46:01;95328.50;;;9.39;51.05
41062;BME280;26812;42.662;23.352;2023-01-15T08:48:28;95338.94;;;9.41;51.24
41062;BME280;26812;42.662;23.352;2023-01-15T08:50:54;95328.91;;;9.32;51.73
41062;BME280;26812;42.662;23.352;2023-01-15T08:53:20;95320.41;;;9.12;51.47
41062;BME280;26812;42.662;23.352;2023-01-15T08:55:46;95332.38;;;9.19;51.10
41062;BME280;26812;42.662;23.352;2023-01-15T08:58:12;95338.56;;;9.20;51.31
41062;BME280;26812;42.662;23.352;2023-01-15T09:00:38;95331.16;;;9.12;50.96
41062;BME280;26812;42.662;23.352;2023-01-15T09:03:03;95325.97;;;9.01;51.45
41062;BME280;26812;42.662;23.352;2023-01-15T09:05:29;95334.34;;;9.00;51.08
41062;BME280;26812;42.662;23.352;2023-01-15T09:07:54;95335.63;;;9.02;51.24
41062;BME280;26812;42.662;23.352;2023-01-15T09:10:20;95335.53;;;9.08;51.52
41062;BME280;26812;42.662;23.352;2023-01-15T09:12:46;95313.13;;;8.98;51.80
41062;BME280;26812;42.662;23.352;2023-01-15T09:15:12;95334.53;;;9.17;51.83
41062;BME280;26812;42.662;23.352;2023-01-15T09:17:37;95310.75;;;8.97;51.24
41062;BME280;26812;42.662;23.352;2023-01-15T09:20:07;95311.25;;;8.99;51.35
41062;BME280;26812;42.662;23.352;2023-01-15T09:22:33;95321.91;;;9.18;50.08
41062;BME280;26812;42.662;23.352;2023-01-15T09:24:59;95294.13;;;9.09;50.92
41062;BME280;26812;42.662;23.352;2023-01-15T09:27:25;95316.44;;;9.37;51.09
41062;BME280;26812;42.662;23.352;2023-01-15T09:29:51;95314.75;;;9.41;50.61
41062;BME280;26812;42.662;23.352;2023-01-15T09:32:16;95306.38;;;9.42;49.23
41062;BME280;26812;42.662;23.352;2023-01-15T09:34:42;95300.91;;;9.33;49.46
41062;BME280;26812;42.662;23.352;2023-01-15T09:37:07;95271.44;;;9.28;48.68
41062;BME280;26812;42.662;23.352;2023-01-15T09:39:33;95304.00;;;9.54;48.69
41062;BME280;26812;42.662;23.352;2023-01-15T09:42:30;95296.63;;;9.46;48.70
41062;BME280;26812;42.662;23.352;2023-01-15T09:53:26;95282.19;;;9.28;50.07
41062;BME280;26812;42.662;23.352;2023-01-15T09:55:57;95268.03;;;9.37;50.37
41062;BME280;26812;42.662;23.352;2023-01-15T09:58:42;95247.41;;;9.59;48.51
41062;BME280;26812;42.662;23.352;2023-01-15T10:01:15;95252.00;;;9.59;48.69
41062;BME280;26812;42.662;23.352;2023-01-15T10:03:42;95248.94;;;9.88;48.79
41062;BME280;26812;42.662;23.352;2023-01-15T10:06:27;95242.25;;;9.49;48.91
41062;BME280;26812;42.662;23.352;2023-01-15T10:09:03;95230.28;;;9.55;49.55
41062;BME280;26812;42.662;23.352;2023-01-15T10:11:39;95231.31;;;9.82;49.70
41062;BME280;26812;42.662;23.352;2023-01-15T10:14:35;95230.75;;;9.93;48.43
41062;BME280;26812;42.662;23.352;2023-01-15T10:17:24;95207.94;;;9.91;48.34
41062;BME280;26812;42.662;23.352;2023-01-15T10:19:52;95237.28;;;9.15;50.77
41062;BME280;26812;42.662;23.352;2023-01-15T10:22:20;95220.44;;;9.51;50.26
41062;BME280;26812;42.662;23.352;2023-01-15T10:24:56;95217.19;;;9.62;50.38
41062;BME280;26812;42.662;23.352;2023-01-15T10:27:24;95209.25;;;9.57;49.35
41062;BME280;26812;42.662;23.352;2023-01-15T10:29:54;95171.09;;;8.78;51.44
41062;BME280;26812;42.662;23.352;2023-01-15T10:32:49;95213.44;;;8.40;52.11
41062;BME280;26812;42.662;23.352;2023-01-15T10:35:44;95210.78;;;8.81;52.12
41062;BME280;26812;42.662;23.352;2023-01-15T10:38:51;95197.19;;;9.19;50.45
41062;BME280;26812;42.662;23.352;2023-01-15T10:46:28;95189.41;;;10.34;47.81
41062;BME280;26812;42.662;23.352;2023-01-15T10:49:04;95178.75;;;9.62;48.04
41062;BME280;26812;42.662;23.352;2023-01-15T10:51:36;95147.16;;;9.90;47.60
41062;BME280;26812;42.662;23.352;2023-01-15T10:56:43;95164.56;;;10.37;47.04
41062;BME280;26812;42.662;23.352;2023-01-15T11:01:37;95154.00;;;10.41;47.91
41062;BME280;26812;42.662;23.352;2023-01-15T11:04:03;95154.25;;;10.70;47.97
41062;BME280;26812;42.662;23.352;2023-01-15T11:06:30;95150.66;;;10.75;47.98
41062;BME280;26812;42.662;23.352;2023-01-15T11:08:57;95147.88;;;11.06;47.17
41062;BME280;26812;42.662;23.352;2023-01-15T11:11:51;95151.47;;;10.93;46.69
41062;BME280;26812;42.662;23.352;2023-01-15T11:14:38;95141.31;;;10.81;47.61
41062;BME280;26812;42.662;23.352;2023-01-15T11:17:43;95139.34;;;11.30;46.27
41062;BME280;26812;42.662;23.352;2023-01-15T11:20:33;95132.25;;;11.42;45.31
41062;BME280;26812;42.662;23.352;2023-01-15T11:23:11;95089.16;;;10.77;46.43
41062;BME280;26812;42.662;23.352;2023-01-15T11:25:37;95110.63;;;11.08;46.19
41062;BME280;26812;42.662;23.352;2023-01-15T11:28:08;95109.53;;;11.52;45.06
41062;BME280;26812;42.662;23.352;2023-01-15T11:30:40;95123.97;;;12.08;43.76
41062;BME280;26812;42.662;23.352;2023-01-15T11:33:23;95122.28;;;12.50;42.43
41062;BME280;26812;42.662;23.352;2023-01-15T11:35:53;95112.28;;;12.42;42.07
41062;BME280;26812;42.662;23.352;2023-01-15T11:38:43;95106.22;;;11.98;43.28
41062;BME280;26812;42.662;23.352;2023-01-15T11:43:53;95096.59;;;12.73;41.80
41062;BME280;26812;42.662;23.352;2023-01-15T11:46:37;95089.34;;;13.16;41.09
41062;BME280;26812;42.662;23.352;2023-01-15T11:49:21;95081.63;;;13.89;39.72
41062;BME280;26812;42.662;23.352;2023-01-15T11:52:09;95090.47;;;13.77;39.93
41062;BME280;26812;42.662;23.352;2023-01-15T11:54:43;95084.44;;;15.07;37.84
41062;BME280;26812;42.662;23.352;2023-01-15T11:57:27;95078.16;;;15.83;36.21
41062;BME280;26812;42.662;23.352;2023-01-15T11:59:54;95074.88;;;13.62;38.89
41062;BME280;26812;42.662;23.352;2023-01-15T12:02:40;95074.44;;;11.61;43.61
41062;BME280;26812;42.662;23.352;2023-01-15T12:05:21;95077.34;;;11.38;44.70
41062;BME280;26812;42.662;23.352;2023-01-15T12:07:50;95071.50;;;12.94;42.64
41062;BME280;26812;42.662;23.352;2023-01-15T12:10:24;95076.41;;;13.51;40.15
41062;BME280;26812;42.662;23.352;2023-01-15T12:16:14;95065.59;;;16.07;36.02
41062;BME280;26812;42.662;23.352;2023-01-15T12:18:53;95066.75;;;16.22;34.85
41062;BME280;26812;42.662;23.352;2023-01-15T12:29:25;95050.41;;;16.97;33.63
41062;BME280;26812;42.662;23.352;2023-01-15T12:32:02;95046.06;;;16.17;34.55
41062;BME280;26812;42.662;23.352;2023-01-15T12:35:13;95045.47;;;16.24;34.28
41062;BME280;26812;42.662;23.352;2023-01-15T12:37:44;95044.84;;;15.87;35.50
41062;BME280;26812;42.662;23.352;2023-01-15T12:42:45;95032.78;;;16.75;33.75
41062;BME280;26812;42.662;23.352;2023-01-15T12:45:36;95001.34;;;16.77;33.54
41062;BME280;26812;42.662;23.352;2023-01-15T12:51:02;95012.69;;;14.44;37.32
41062;BME280;26812;42.662;23.352;2023-01-15T13:06:27;95019.88;;;11.29;45.24
41062;BME280;26812;42.662;23.352;2023-01-15T13:09:04;95014.13;;;11.74;43.70
41062;BME280;26812;42.662;23.352;2023-01-15T13:11:33;95022.88;;;11.79;43.88
41062;BME280;26812;42.662;23.352;2023-01-15T13:13:58;95007.78;;;11.61;43.73
41062;BME280;26812;42.662;23.352;2023-01-15T13:21:58;95005.59;;;14.06;39.08
41062;BME280;26812;42.662;23.352;2023-01-15T13:27:06;95001.25;;;14.63;37.81
41062;BME280;26812;42.662;23.352;2023-01-15T13:32:19;94975.75;;;15.16;36.42
41062;BME280;26812;42.662;23.352;2023-01-15T13:34:52;94980.78;;;15.58;35.88
41062;BME280;26812;42.662;23.352;2023-01-15T13:37:21;94984.16;;;15.39;36.26
41062;BME280;26812;42.662;23.352;2023-01-15T13:39:48;94978.22;;;14.56;37.35
41062;BME280;26812;42.662;23.352;2023-01-15T13:42:19;94983.06;;;13.36;40.22
41062;BME280;26812;42.662;23.352;2023-01-15T13:47:35;94979.69;;;12.77;41.55
41062;BME280;26812;42.662;23.352;2023-01-15T13:50:25;94975.72;;;12.15;42.86
41062;BME280;26812;42.662;23.352;2023-01-15T13:53:02;94955.91;;;12.11;43.27
41062;BME280;26812;42.662;23.352;2023-01-15T13:55:36;94977.31;;;11.78;43.88
41062;BME280;26812;42.662;23.352;2023-01-15T13:58:19;94976.19;;;12.26;43.75
41062;BME280;26812;42.662;23.352;2023-01-15T14:00:45;94980.81;;;12.75;42.59
41062;BME280;26812;42.662;23.352;2023-01-15T14:03:29;94980.09;;;12.37;43.06
41062;BME280;26812;42.662;23.352;2023-01-15T14:06:00;94975.41;;;13.38;40.86
41062;BME280;26812;42.662;23.352;2023-01-15T14:08:35;94971.09;;;14.27;39.09
41062;BME280;26812;42.662;23.352;2023-01-15T14:11:00;94969.97;;;14.65;37.57
41062;BME280;26812;42.662;23.352;2023-01-15T14:16:51;94972.69;;;14.53;36.95
41062;BME280;26812;42.662;23.352;2023-01-15T14:28:16;94965.41;;;13.96;38.48
41062;BME280;26812;42.662;23.352;2023-01-15T14:36:08;94973.50;;;11.62;43.91
41062;BME280;26812;42.662;23.352;2023-01-15T14:38:34;94962.94;;;10.53;46.29
41062;BME280;26812;42.662;23.352;2023-01-15T14:41:02;94970.84;;;10.41;47.46
41062;BME280;26812;42.662;23.352;2023-01-15T14:43:32;94951.69;;;10.03;48.72
41062;BME280;26812;42.662;23.352;2023-01-15T14:46:31;94972.13;;;9.42;50.38
41062;BME280;26812;42.662;23.352;2023-01-15T14:48:59;94956.75;;;9.64;49.85
41062;BME280;26812;42.662;23.352;2023-01-15T14:51:31;94949.88;;;9.50;50.44
41062;BME280;26812;42.662;23.352;2023-01-15T14:54:01;94971.78;;;9.65;50.10
41062;BME280;26812;42.662;23.352;2023-01-15T14:56:33;94966.44;;;9.74;50.18
41062;BME280;26812;42.662;23.352;2023-01-15T15:01:43;94966.34;;;8.31;55.26
41062;BME280;26812;42.662;23.352;2023-01-15T15:11:51;94972.22;;;8.33;55.92
41062;BME280;26812;42.662;23.352;2023-01-15T15:14:37;94969.56;;;8.69;54.67